Time,TemperatureF,DewpointF,PressureIn,WindDirection,WindDirectionDegrees,WindSpeedMPH,WindSpeedGustMPH,Humidity,HourlyPrecipIn,Conditions,Clouds,dailyrainin,SoftwareType,DateUTC
2013-02-22 00:01:00,20.0,11.0,-100.00,NW,310,1.0,1.0,70,-99.99,,,-99.99,,2013-02-22 07:01:00,
2013-02-22 00:11:00,20.0,11.0,-100.00,NW,310,1.0,1.0,70,-99.99,,,-99.99,,2013-02-22 07:11:00,
2013-02-22 02:51:00,22.0,14.0,-100.00,West,275,4.0,5.0,71,-99.99,,,0.00,,2013-02-22 09:51:00,
2013-02-22 03:01:00,22.0,14.0,-100.00,West,275,4.0,5.0,71,-99.99,,,0.00,,2013-02-22 10:01:00,
2013-02-22 03:11:00,22.0,14.0,-100.00,West,275,4.0,5.0,71,-99.99,,,0.00,,2013-02-22 10:11:00,
2013-02-22 04:32:00,20.0,13.0,-100.00,West,275,4.0,6.0,73,-99.99,,,-99.99,,2013-02-22 11:32:00,
2013-02-22 04:42:00,20.0,13.0,-100.00,West,275,4.0,6.0,73,-99.99,,,-99.99,,2013-02-22 11:42:00,
2013-02-22 04:52:00,20.0,13.0,-100.00,West,275,4.0,6.0,73,-99.99,,,-99.99,,2013-02-22 11:52:00,
2013-02-22 05:00:00,18.0,12.0,-100.00,WNW,295,3.0,4.0,79,-99.99,,,0.00,,2013-02-22 12:00:00,
2013-02-22 05:11:00,19.0,13.0,-100.00,West,280,3.0,4.0,77,-99.99,,,0.00,,2013-02-22 12:11:00,
2013-02-22 05:21:00,19.0,13.0,-100.00,West,280,3.0,4.0,77,-99.99,,,0.00,,2013-02-22 12:21:00,
2013-02-22 05:32:00,18.0,12.0,-100.00,WNW,295,3.0,4.0,79,-99.99,,,0.00,,2013-02-22 12:32:00,
2013-02-22 05:42:00,18.0,12.0,-100.00,WNW,295,3.0,4.0,79,-99.99,,,0.00,,2013-02-22 12:42:00,
2013-02-22 05:52:00,18.0,12.0,-100.00,WNW,295,3.0,4.0,79,-99.99,,,0.00,,2013-02-22 12:52:00,
2013-02-22 06:11:00,17.0,12.0,-100.00,WNW,300,3.0,3.0,81,-99.99,,,0.00,,2013-02-22 13:11:00,
2013-02-22 06:22:00,17.0,12.0,-100.00,WNW,300,3.0,3.0,81,-99.99,,,0.00,,2013-02-22 13:22:00,
2013-02-22 06:31:00,17.0,12.0,-100.00,WNW,295,4.0,5.0,83,-99.99,,,0.00,,2013-02-22 13:31:00,
2013-02-22 06:42:00,17.0,12.0,-100.00,WNW,295,4.0,5.0,83,-99.99,,,0.00,,2013-02-22 13:42:00,
2013-02-22 06:51:00,17.0,12.0,-100.00,WNW,295,4.0,5.0,83,-99.99,,,0.00,,2013-02-22 13:51:00,
2013-02-22 07:00:00,16.0,13.0,-100.00,West,280,3.0,4.0,87,-99.99,,,0.00,,2013-02-22 14:00:00,
2013-02-22 07:11:00,16.0,13.0,-100.00,WNW,300,3.0,4.0,85,-99.99,,,0.00,,2013-02-22 14:11:00,
2013-02-22 07:21:00,16.0,13.0,-100.00,WNW,300,3.0,4.0,85,-99.99,,,0.00,,2013-02-22 14:21:00,
2013-02-22 07:32:00,16.0,13.0,-100.00,West,280,3.0,4.0,87,-99.99,,,0.00,,2013-02-22 14:32:00,
2013-02-22 07:42:00,16.0,13.0,-100.00,West,280,3.0,4.0,87,-99.99,,,0.00,,2013-02-22 14:42:00,
2013-02-22 07:52:00,16.0,13.0,-100.00,West,280,3.0,4.0,87,-99.99,,,0.00,,2013-02-22 14:52:00,
2013-02-22 08:00:00,19.0,14.0,-100.00,West,265,5.0,6.0,82,-99.99,,,0.00,,2013-02-22 15:00:00,
2013-02-22 08:11:00,15.0,12.0,-100.00,West,275,4.0,7.0,87,-99.99,,,0.00,,2013-02-22 15:11:00,
2013-02-22 08:21:00,15.0,12.0,-100.00,West,275,4.0,7.0,87,-99.99,,,0.00,,2013-02-22 15:21:00,
2013-02-22 08:32:00,19.0,14.0,-100.00,West,265,5.0,6.0,82,-99.99,,,0.00,,2013-02-22 15:32:00,
2013-02-22 08:41:00,19.0,14.0,-100.00,West,265,5.0,6.0,82,-99.99,,,0.00,,2013-02-22 15:41:00,
2013-02-22 08:52:00,19.0,14.0,-100.00,West,265,5.0,6.0,82,-99.99,,,0.00,,2013-02-22 15:52:00,
2013-02-22 09:00:00,23.0,15.0,-100.00,West,265,6.0,9.0,69,-99.99,,,0.00,,2013-02-22 16:00:00,
2013-02-22 09:12:00,21.0,14.0,-100.00,NW,305,6.0,10.0,76,-99.99,,,0.00,,2013-02-22 16:12:00,
2013-02-22 09:21:00,21.0,14.0,-100.00,NW,305,6.0,10.0,76,-99.99,,,0.00,,2013-02-22 16:21:00,
2013-02-22 09:31:00,23.0,15.0,-100.00,West,265,6.0,9.0,69,-99.99,,,0.00,,2013-02-22 16:31:00,
2013-02-22 09:42:00,23.0,15.0,-100.00,West,265,6.0,9.0,69,-99.99,,,0.00,,2013-02-22 16:42:00,
2013-02-22 09:52:00,23.0,15.0,-100.00,West,265,6.0,9.0,69,-99.99,,,0.00,,2013-02-22 16:52:00,
2013-02-22 10:00:00,28.0,15.0,-100.00,West,270,9.0,11.0,57,-99.99,,,0.00,,2013-02-22 17:00:00,
2013-02-22 10:11:00,26.0,15.0,-100.00,West,270,7.0,9.0,63,-99.99,,,0.00,,2013-02-22 17:11:00,
2013-02-22 10:21:00,26.0,15.0,-100.00,West,270,7.0,9.0,63,-99.99,,,0.00,,2013-02-22 17:21:00,
2013-02-22 10:31:00,28.0,15.0,-100.00,West,270,9.0,11.0,57,-99.99,,,0.00,,2013-02-22 17:31:00,
2013-02-22 10:42:00,28.0,15.0,-100.00,West,270,9.0,11.0,57,-99.99,,,0.00,,2013-02-22 17:42:00,
2013-02-22 10:52:00,28.0,15.0,-100.00,West,270,9.0,11.0,57,-99.99,,,0.00,,2013-02-22 17:52:00,
2013-02-22 11:12:00,29.0,14.0,-100.00,West,270,8.0,11.0,54,-99.99,,,0.00,,2013-02-22 18:12:00,
2013-02-22 11:22:00,29.0,14.0,-100.00,West,270,8.0,11.0,54,-99.99,,,0.00,,2013-02-22 18:22:00,
2013-02-22 11:32:00,31.0,15.0,-100.00,West,265,8.0,11.0,52,-99.99,,,0.00,,2013-02-22 18:32:00,
2013-02-22 11:42:00,31.0,15.0,-100.00,West,265,8.0,11.0,52,-99.99,,,0.00,,2013-02-22 18:42:00,
2013-02-22 11:51:00,31.0,15.0,-100.00,West,265,8.0,11.0,52,-99.99,,,0.00,,2013-02-22 18:51:00,
2013-02-22 12:00:00,34.0,17.0,-100.00,West,275,11.0,20.0,51,-99.99,,,0.00,,2013-02-22 19:00:00,
2013-02-22 12:11:00,33.0,17.0,-100.00,West,275,8.0,11.0,51,-99.99,,,0.00,,2013-02-22 19:11:00,
2013-02-22 12:21:00,33.0,17.0,-100.00,West,275,8.0,11.0,51,-99.99,,,0.00,,2013-02-22 19:21:00,
2013-02-22 12:31:00,34.0,17.0,-100.00,West,275,11.0,20.0,51,-99.99,,,0.00,,2013-02-22 19:31:00,
2013-02-22 12:41:00,34.0,17.0,-100.00,West,275,11.0,20.0,51,-99.99,,,0.00,,2013-02-22 19:41:00,
2013-02-22 12:52:00,34.0,17.0,-100.00,West,275,11.0,20.0,51,-99.99,,,0.00,,2013-02-22 19:52:00,
2013-02-22 13:00:00,34.0,16.0,-100.00,WNW,285,10.0,15.0,48,-99.99,,,0.00,,2013-02-22 20:00:00,
2013-02-22 13:11:00,34.0,18.0,-100.00,West,280,10.0,13.0,50,-99.99,,,0.00,,2013-02-22 20:11:00,
2013-02-22 13:21:00,34.0,18.0,-100.00,West,280,10.0,13.0,50,-99.99,,,0.00,,2013-02-22 20:21:00,
2013-02-22 13:31:00,34.0,16.0,-100.00,WNW,285,10.0,15.0,48,-99.99,,,0.00,,2013-02-22 20:31:00,
2013-02-22 13:41:00,34.0,16.0,-100.00,WNW,285,10.0,15.0,48,-99.99,,,0.00,,2013-02-22 20:41:00,
2013-02-22 13:52:00,34.0,16.0,-100.00,WNW,285,10.0,15.0,48,-99.99,,,0.00,,2013-02-22 20:52:00,
2013-02-22 14:11:00,34.0,17.0,-100.00,West,265,6.0,11.0,48,-99.99,,,0.00,,2013-02-22 21:11:00,
2013-02-22 14:21:00,34.0,17.0,-100.00,West,265,6.0,11.0,48,-99.99,,,0.00,,2013-02-22 21:21:00,
2013-02-22 14:30:00,34.0,16.0,-100.00,WSW,245,9.0,12.0,46,-99.99,,,0.00,,2013-02-22 21:30:00,
2013-02-22 15:11:00,34.0,16.0,-100.00,WSW,245,9.0,12.0,46,-99.99,,,0.00,,2013-02-22 22:11:00,
2013-02-22 15:21:00,34.0,16.0,-100.00,WSW,245,9.0,12.0,46,-99.99,,,0.00,,2013-02-22 22:21:00,
2013-02-22 16:00:00,34.0,16.0,-100.00,West,265,8.0,11.0,46,-99.99,,,0.00,,2013-02-22 23:00:00,
2013-02-22 16:11:00,34.0,15.0,-100.00,West,275,10.0,14.0,46,-99.99,,,0.00,,2013-02-22 23:11:00,
2013-02-22 16:21:00,34.0,15.0,-100.00,West,275,10.0,14.0,46,-99.99,,,0.00,,2013-02-22 23:21:00,
2013-02-22 16:31:00,34.0,16.0,-100.00,West,265,8.0,11.0,46,-99.99,,,0.00,,2013-02-22 23:31:00,
2013-02-22 16:41:00,34.0,16.0,-100.00,West,265,8.0,11.0,46,-99.99,,,0.00,,2013-02-22 23:41:00,
2013-02-22 16:52:00,34.0,16.0,-100.00,West,265,8.0,11.0,46,-99.99,,,0.00,,2013-02-22 23:52:00,
2013-02-22 17:11:00,33.0,15.0,-100.00,West,265,4.0,5.0,47,-99.99,,,0.00,,2013-02-23 00:11:00,
2013-02-22 17:21:00,33.0,15.0,-100.00,West,265,4.0,5.0,47,-99.99,,,0.00,,2013-02-23 00:21:00,
2013-02-22 17:30:00,32.0,15.0,-100.00,WSW,250,3.0,4.0,50,-99.99,,,0.00,,2013-02-23 00:30:00,
2013-02-22 17:31:00,33.0,15.0,-100.00,WNW,290,4.0,6.0,48,-99.99,,,0.00,,2013-02-23 00:31:00,
2013-02-22 17:41:00,33.0,15.0,-100.00,WNW,290,4.0,6.0,48,-99.99,,,0.00,,2013-02-23 00:41:00,
2013-02-22 17:51:00,33.0,15.0,-100.00,WNW,290,4.0,6.0,48,-99.99,,,0.00,,2013-02-23 00:51:00,
2013-02-22 18:11:00,32.0,15.0,-100.00,WSW,250,3.0,4.0,50,-99.99,,,0.00,,2013-02-23 01:11:00,
2013-02-22 18:21:00,32.0,15.0,-100.00,WSW,250,3.0,4.0,50,-99.99,,,0.00,,2013-02-23 01:21:00,
2013-02-22 20:51:00,27.0,15.0,-100.00,West,265,2.0,4.0,58,-99.99,,,0.00,,2013-02-23 03:51:00,
2013-02-22 21:01:00,27.0,15.0,-100.00,West,265,2.0,4.0,58,-99.99,,,0.00,,2013-02-23 04:01:00,
2013-02-22 21:11:00,27.0,15.0,-100.00,West,265,2.0,4.0,58,-99.99,,,0.00,,2013-02-23 04:11:00,
2013-02-22 23:51:00,35.0,19.0,-100.00,West,265,9.0,11.0,52,-99.99,,,0.00,,2013-02-23 06:51:00,